sensor_id;sensor_type;location;lat;lon;timestamp;P1;durP1;ratioP1;P2;durP2;ratioP2
2906;SDS011;1463;51.070;16.998;2023-03-13T00:02:01;2.60;;;2.10;;
2906;SDS011;1463;51.070;16.998;2023-03-13T00:04:28;5.00;;;2.55;;
2906;SDS011;1463;51.070;16.998;2023-03-13T00:06:56;3.85;;;2.28;;
2906;SDS011;1463;51.070;16.998;2023-03-13T00:09:24;4.25;;;2.30;;
2906;SDS011;1463;51.070;16.998;2023-03-13T00:11:52;2.92;;;2.10;;
2906;SDS011;1463;51.070;16.998;2023-03-13T00:14:19;3.03;;;2.20;;
2906;SDS011;1463;51.070;16.998;2023-03-13T00:16:46;4.10;;;2.60;;
2906;SDS011;1463;51.070;16.998;2023-03-13T00:19:15;3.53;;;2.33;;
2906;SDS011;1463;51.070;16.998;2023-03-13T00:21:43;3.05;;;2.30;;
2906;SDS011;1463;51.070;16.998;2023-03-13T00:24:10;2.95;;;2.17;;
2906;SDS011;1463;51.070;16.998;2023-03-13T00:26:38;4.47;;;2.30;;
2906;SDS011;1463;51.070;16.998;2023-03-13T00:29:08;4.60;;;2.03;;
2906;SDS011;1463;51.070;16.998;2023-03-13T00:31:38;3.53;;;2.47;;
2906;SDS011;1463;51.070;16.998;2023-03-13T00:34:05;3.45;;;1.95;;
2906;SDS011;1463;51.070;16.998;2023-03-13T00:36:34;3.20;;;2.10;;
2906;SDS011;1463;51.070;16.998;2023-03-13T00:39:04;3.38;;;2.30;;
2906;SDS011;1463;51.070;16.998;2023-03-13T00:41:32;6.25;;;2.65;;
2906;SDS011;1463;51.070;16.998;2023-03-13T00:44:01;3.70;;;2.60;;
2906;SDS011;1463;51.070;16.998;2023-03-13T00:46:30;5.70;;;2.90;;
2906;SDS011;1463;51.070;16.998;2023-03-13T00:48:57;4.38;;;2.65;;
2906;SDS011;1463;51.070;16.998;2023-03-13T00:51:25;3.83;;;2.78;;
2906;SDS011;1463;51.070;16.998;2023-03-13T00:53:55;3.72;;;3.03;;
2906;SDS011;1463;51.070;16.998;2023-03-13T00:56:24;3.85;;;2.50;;
2906;SDS011;1463;51.070;16.998;2023-03-13T00:58:52;4.25;;;2.83;;
2906;SDS011;1463;51.070;16.998;2023-03-13T01:01:20;4.38;;;3.00;;
2906;SDS011;1463;51.070;16.998;2023-03-13T01:03:49;3.40;;;2.38;;
2906;SDS011;1463;51.070;16.998;2023-03-13T01:06:19;3.40;;;2.50;;
2906;SDS011;1463;51.070;16.998;2023-03-13T01:08:48;4.45;;;2.80;;
2906;SDS011;1463;51.070;16.998;2023-03-13T01:11:18;3.83;;;2.85;;
2906;SDS011;1463;51.070;16.998;2023-03-13T01:13:47;5.32;;;2.70;;
2906;SDS011;1463;51.070;16.998;2023-03-13T01:16:16;4.00;;;2.70;;
2906;SDS011;1463;51.070;16.998;2023-03-13T01:18:46;5.53;;;3.15;;
2906;SDS011;1463;51.070;16.998;2023-03-13T01:21:16;4.18;;;2.92;;
2906;SDS011;1463;51.070;16.998;2023-03-13T01:23:44;4.90;;;3.22;;
2906;SDS011;1463;51.070;16.998;2023-03-13T01:26:14;4.82;;;2.90;;
2906;SDS011;1463;51.070;16.998;2023-03-13T01:28:43;4.35;;;2.78;;
2906;SDS011;1463;51.070;16.998;2023-03-13T01:31:11;4.57;;;3.10;;
2906;SDS011;1463;51.070;16.998;2023-03-13T01:33:40;7.18;;;3.35;;
2906;SDS011;1463;51.070;16.998;2023-03-13T01:36:11;4.85;;;3.00;;
2906;SDS011;1463;51.070;16.998;2023-03-13T01:38:39;6.18;;;3.78;;
2906;SDS011;1463;51.070;16.998;2023-03-13T01:41:07;5.00;;;3.40;;
2906;SDS011;1463;51.070;16.998;2023-03-13T01:43:37;9.32;;;3.50;;
2906;SDS011;1463;51.070;16.998;2023-03-13T01:46:13;4.95;;;3.55;;
2906;SDS011;1463;51.070;16.998;2023-03-13T01:48:44;6.18;;;3.05;;
2906;SDS011;1463;51.070;16.998;2023-03-13T01:51:17;5.82;;;3.25;;
2906;SDS011;1463;51.070;16.998;2023-03-13T01:53:49;5.10;;;3.25;;
2906;SDS011;1463;51.070;16.998;2023-03-13T01:56:24;3.95;;;3.00;;
2906;SDS011;1463;51.070;16.998;2023-03-13T01:58:58;6.25;;;4.15;;
2906;SDS011;1463;51.070;16.998;2023-03-13T02:01:28;5.00;;;3.75;;
2906;SDS011;1463;51.070;16.998;2023-03-13T02:03:56;7.93;;;4.55;;
2906;SDS011;1463;51.070;16.998;2023-03-13T02:06:24;4.75;;;3.85;;
2906;SDS011;1463;51.070;16.998;2023-03-13T02:08:56;7.50;;;4.68;;
2906;SDS011;1463;51.070;16.998;2023-03-13T02:11:31;7.20;;;4.53;;
2906;SDS011;1463;51.070;16.998;2023-03-13T02:14:07;6.40;;;4.05;;
2906;SDS011;1463;51.070;16.998;2023-03-13T02:16:36;5.22;;;4.13;;
2906;SDS011;1463;51.070;16.998;2023-03-13T02:19:06;10.00;;;4.40;;
2906;SDS011;1463;51.070;16.998;2023-03-13T02:21:47;5.18;;;3.58;;
2906;SDS011;1463;51.070;16.998;2023-03-13T02:24:21;7.40;;;5.13;;
2906;SDS011;1463;51.070;16.998;2023-03-13T02:26:56;6.78;;;4.38;;
2906;SDS011;1463;51.070;16.998;2023-03-13T02:29:24;10.93;;;4.70;;
2906;SDS011;1463;51.070;16.998;2023-03-13T02:31:51;6.30;;;4.10;;
2906;SDS011;1463;51.070;16.998;2023-03-13T02:34:23;6.38;;;3.85;;
2906;SDS011;1463;51.070;16.998;2023-03-13T02:36:53;6.38;;;4.70;;
2906;SDS011;1463;51.070;16.998;2023-03-13T02:39:20;6.40;;;4.10;;
2906;SDS011;1463;51.070;16.998;2023-03-13T02:41:50;7.07;;;3.50;;
2906;SDS011;1463;51.070;16.998;2023-03-13T02:44:20;6.95;;;4.55;;
2906;SDS011;1463;51.070;16.998;2023-03-13T02:46:51;5.30;;;4.35;;
2906;SDS011;1463;51.070;16.998;2023-03-13T02:49:20;6.38;;;4.15;;
2906;SDS011;1463;51.070;16.998;2023-03-13T02:51:49;9.65;;;5.07;;
2906;SDS011;1463;51.070;16.998;2023-03-13T02:54:19;6.75;;;4.53;;
2906;SDS011;1463;51.070;16.998;2023-03-13T02:56:49;5.30;;;4.18;;
2906;SDS011;1463;51.070;16.998;2023-03-13T02:59:22;7.45;;;4.35;;
2906;SDS011;1463;51.070;16.998;2023-03-13T03:01:50;5.35;;;3.90;;
2906;SDS011;1463;51.070;16.998;2023-03-13T03:04:19;5.10;;;3.85;;
2906;SDS011;1463;51.070;16.998;2023-03-13T03:06:47;5.75;;;3.90;;
2906;SDS011;1463;51.070;16.998;2023-03-13T03:09:15;6.25;;;4.50;;
2906;SDS011;1463;51.070;16.998;2023-03-13T03:11:43;7.70;;;4.50;;
2906;SDS011;1463;51.070;16.998;2023-03-13T03:14:11;8.73;;;5.35;;
2906;SDS011;1463;51.070;16.998;2023-03-13T03:16:40;9.23;;;5.40;;
2906;SDS011;1463;51.070;16.998;2023-03-13T03:19:08;12.02;;;5.25;;
2906;SDS011;1463;51.070;16.998;2023-03-13T03:21:36;12.38;;;6.50;;
2906;SDS011;1463;51.070;16.998;2023-03-13T03:24:06;9.57;;;5.63;;
2906;SDS011;1463;51.070;16.998;2023-03-13T03:26:34;8.13;;;5.43;;
2906;SDS011;1463;51.070;16.998;2023-03-13T03:29:02;7.90;;;5.32;;
2906;SDS011;1463;51.070;16.998;2023-03-13T03:31:29;8.27;;;6.53;;
2906;SDS011;1463;51.070;16.998;2023-03-13T03:33:59;11.18;;;5.40;;
2906;SDS011;1463;51.070;16.998;2023-03-13T03:36:26;9.45;;;6.13;;
2906;SDS011;1463;51.070;16.998;2023-03-13T03:38:55;9.38;;;5.32;;
2906;SDS011;1463;51.070;16.998;2023-03-13T03:41:24;9.07;;;6.43;;
2906;SDS011;1463;51.070;16.998;2023-03-13T03:43:51;9.20;;;5.50;;
2906;SDS011;1463;51.070;16.998;2023-03-13T03:46:19;13.23;;;5.50;;
2906;SDS011;1463;51.070;16.998;2023-03-13T03:48:46;12.80;;;6.10;;
2906;SDS011;1463;51.070;16.998;2023-03-13T03:51:15;9.82;;;5.95;;
2906;SDS011;1463;51.070;16.998;2023-03-13T03:53:42;10.98;;;5.45;;
2906;SDS011;1463;51.070;16.998;2023-03-13T03:56:10;10.52;;;5.07;;
2906;SDS011;1463;51.070;16.998;2023-03-13T03:58:37;11.48;;;6.07;;
2906;SDS011;1463;51.070;16.998;2023-03-13T04:01:05;12.77;;;6.35;;
2906;SDS011;1463;51.070;16.998;2023-03-13T04:03:32;9.77;;;5.40;;
2906;SDS011;1463;51.070;16.998;2023-03-13T04:06:00;11.55;;;5.40;;
2906;SDS011;1463;51.070;16.998;2023-03-13T04:08:29;10.15;;;4.85;;
2906;SDS011;1463;51.070;16.998;2023-03-13T04:10:56;11.52;;;6.25;;
2906;SDS011;1463;51.070;16.998;2023-03-13T04:13:26;7.97;;;4.63;;
2906;SDS011;1463;51.070;16.998;2023-03-13T04:15:53;11.25;;;5.78;;
2906;SDS011;1463;51.070;16.998;2023-03-13T04:18:20;9.25;;;6.00;;
2906;SDS011;1463;51.070;16.998;2023-03-13T04:20:48;7.15;;;4.50;;
2906;SDS011;1463;51.070;16.998;2023-03-13T04:23:15;6.85;;;4.55;;
2906;SDS011;1463;51.070;16.998;2023-03-13T04:25:47;13.40;;;5.57;;
2906;SDS011;1463;51.070;16.998;2023-03-13T04:28:16;7.95;;;4.85;;
2906;SDS011;1463;51.070;16.998;2023-03-13T04:30:43;9.38;;;5.78;;
2906;SDS011;1463;51.070;16.998;2023-03-13T04:33:10;8.02;;;5.68;;
2906;SDS011;1463;51.070;16.998;2023-03-13T04:35:38;8.20;;;5.15;;
2906;SDS011;1463;51.070;16.998;2023-03-13T04:38:05;10.27;;;5.40;;
2906;SDS011;1463;51.070;16.998;2023-03-13T04:40:32;11.07;;;5.60;;
2906;SDS011;1463;51.070;16.998;2023-03-13T04:43:01;13.63;;;6.05;;
2906;SDS011;1463;51.070;16.998;2023-03-13T04:45:32;14.00;;;6.68;;
2906;SDS011;1463;51.070;16.998;2023-03-13T04:47:59;12.32;;;6.30;;
2906;SDS011;1463;51.070;16.998;2023-03-13T04:50:27;8.75;;;5.50;;
2906;SDS011;1463;51.070;16.998;2023-03-13T04:52:54;9.75;;;6.90;;
2906;SDS011;1463;51.070;16.998;2023-03-13T04:55:21;8.25;;;5.60;;
2906;SDS011;1463;51.070;16.998;2023-03-13T04:57:49;7.95;;;6.03;;
2906;SDS011;1463;51.070;16.998;2023-03-13T05:00:18;12.95;;;6.60;;
2906;SDS011;1463;51.070;16.998;2023-03-13T05:02:46;9.35;;;6.60;;
2906;SDS011;1463;51.070;16.998;2023-03-13T05:05:15;16.75;;;6.57;;
2906;SDS011;1463;51.070;16.998;2023-03-13T05:07:43;8.40;;;5.57;;
2906;SDS011;1463;51.070;16.998;2023-03-13T05:10:13;10.15;;;5.63;;
2906;SDS011;1463;51.070;16.998;2023-03-13T05:12:41;12.50;;;7.10;;
2906;SDS011;1463;51.070;16.998;2023-03-13T05:15:08;11.73;;;6.90;;
2906;SDS011;1463;51.070;16.998;2023-03-13T05:17:38;12.40;;;6.70;;
2906;SDS011;1463;51.070;16.998;2023-03-13T05:20:06;11.68;;;7.60;;
2906;SDS011;1463;51.070;16.998;2023-03-13T05:22:35;16.15;;;7.22;;
2906;SDS011;1463;51.070;16.998;2023-03-13T05:25:03;15.50;;;6.03;;
2906;SDS011;1463;51.070;16.998;2023-03-13T05:27:31;10.93;;;7.05;;
2906;SDS011;1463;51.070;16.998;2023-03-13T05:29:58;13.50;;;7.00;;
2906;SDS011;1463;51.070;16.998;2023-03-13T05:32:26;10.15;;;5.63;;
2906;SDS011;1463;51.070;16.998;2023-03-13T05:34:55;12.98;;;6.40;;
2906;SDS011;1463;51.070;16.998;2023-03-13T05:37:22;15.85;;;8.35;;
2906;SDS011;1463;51.070;16.998;2023-03-13T05:39:50;10.93;;;6.63;;
2906;SDS011;1463;51.070;16.998;2023-03-13T05:42:17;10.75;;;6.10;;
2906;SDS011;1463;51.070;16.998;2023-03-13T05:44:44;14.20;;;7.35;;
2906;SDS011;1463;51.070;16.998;2023-03-13T05:47:12;15.35;;;6.82;;
2906;SDS011;1463;51.070;16.998;2023-03-13T05:49:40;25.98;;;6.70;;
2906;SDS011;1463;51.070;16.998;2023-03-13T05:52:09;11.45;;;6.90;;
2906;SDS011;1463;51.070;16.998;2023-03-13T05:54:36;11.13;;;7.32;;
2906;SDS011;1463;51.070;16.998;2023-03-13T05:57:04;12.40;;;5.97;;
2906;SDS011;1463;51.070;16.998;2023-03-13T05:59:31;15.27;;;7.88;;
2906;SDS011;1463;51.070;16.998;2023-03-13T06:01:59;9.18;;;6.45;;
2906;SDS011;1463;51.070;16.998;2023-03-13T06:04:26;13.20;;;6.63;;
2906;SDS011;1463;51.070;16.998;2023-03-13T06:06:54;17.85;;;6.50;;
2906;SDS011;1463;51.070;16.998;2023-03-13T06:09:23;14.35;;;6.68;;
2906;SDS011;1463;51.070;16.998;2023-03-13T06:11:53;13.77;;;6.20;;
2906;SDS011;1463;51.070;16.998;2023-03-13T06:14:21;12.70;;;6.80;;
2906;SDS011;1463;51.070;16.998;2023-03-13T06:16:49;10.52;;;6.50;;
2906;SDS011;1463;51.070;16.998;2023-03-13T06:19:16;13.07;;;6.93;;
2906;SDS011;1463;51.070;16.998;2023-03-13T06:21:44;11.18;;;5.50;;
2906;SDS011;1463;51.070;16.998;2023-03-13T06:24:11;12.13;;;5.40;;
2906;SDS011;1463;51.070;16.998;2023-03-13T06:26:40;17.58;;;6.68;;
2906;SDS011;1463;51.070;16.998;2023-03-13T06:29:08;12.98;;;6.75;;
2906;SDS011;1463;51.070;16.998;2023-03-13T06:31:36;11.60;;;7.18;;
2906;SDS011;1463;51.070;16.998;2023-03-13T06:34:04;11.93;;;6.70;;
2906;SDS011;1463;51.070;16.998;2023-03-13T06:36:31;12.27;;;5.78;;
2906;SDS011;1463;51.070;16.998;2023-03-13T06:38:58;12.80;;;6.35;;
2906;SDS011;1463;51.070;16.998;2023-03-13T06:41:26;13.10;;;6.20;;
2906;SDS011;1463;51.070;16.998;2023-03-13T06:43:55;10.10;;;6.82;;
2906;SDS011;1463;51.070;16.998;2023-03-13T06:46:22;10.85;;;6.40;;
2906;SDS011;1463;51.070;16.998;2023-03-13T06:48:50;10.88;;;7.38;;
2906;SDS011;1463;51.070;16.998;2023-03-13T06:51:18;11.23;;;6.05;;
2906;SDS011;1463;51.070;16.998;2023-03-13T06:53:47;10.00;;;6.30;;
2906;SDS011;1463;51.070;16.998;2023-03-13T06:56:16;12.70;;;6.65;;
2906;SDS011;1463;51.070;16.998;2023-03-13T06:58:46;10.57;;;7.60;;
2906;SDS011;1463;51.070;16.998;2023-03-13T07:01:16;10.75;;;5.82;;
2906;SDS011;1463;51.070;16.998;2023-03-13T07:03:43;15.95;;;6.93;;
2906;SDS011;1463;51.070;16.998;2023-03-13T07:06:12;9.43;;;6.57;;
2906;SDS011;1463;51.070;16.998;2023-03-13T07:08:40;10.02;;;6.15;;
2906;SDS011;1463;51.070;16.998;2023-03-13T07:11:08;12.60;;;9.40;;
2906;SDS011;1463;51.070;16.998;2023-03-13T07:13:37;9.10;;;5.65;;
2906;SDS011;1463;51.070;16.998;2023-03-13T07:16:05;13.93;;;6.10;;
2906;SDS011;1463;51.070;16.998;2023-03-13T07:18:36;10.43;;;6.15;;
2906;SDS011;1463;51.070;16.998;2023-03-13T07:21:05;12.50;;;6.25;;
2906;SDS011;1463;51.070;16.998;2023-03-13T07:23:36;9.25;;;6.55;;
2906;SDS011;1463;51.070;16.998;2023-03-13T07:26:05;9.98;;;6.95;;
2906;SDS011;1463;51.070;16.998;2023-03-13T07:28:36;13.40;;;6.45;;
2906;SDS011;1463;51.070;16.998;2023-03-13T07:31:04;11.27;;;6.05;;
2906;SDS011;1463;51.070;16.998;2023-03-13T07:33:33;13.07;;;6.30;;
2906;SDS011;1463;51.070;16.998;2023-03-13T07:36:05;10.57;;;6.35;;
2906;SDS011;1463;51.070;16.998;2023-03-13T07:38:33;10.52;;;6.25;;
2906;SDS011;1463;51.070;16.998;2023-03-13T07:41:04;10.65;;;6.32;;
2906;SDS011;1463;51.070;16.998;2023-03-13T07:43:31;11.48;;;5.97;;
2906;SDS011;1463;51.070;16.998;2023-03-13T07:46:00;14.65;;;6.50;;
2906;SDS011;1463;51.070;16.998;2023-03-13T07:48:29;9.60;;;6.65;;
2906;SDS011;1463;51.070;16.998;2023-03-13T07:51:00;8.13;;;3.97;;
2906;SDS011;1463;51.070;16.998;2023-03-13T07:53:30;9.02;;;5.47;;
2906;SDS011;1463;51.070;16.998;2023-03-13T07:55:58;10.40;;;5.03;;
2906;SDS011;1463;51.070;16.998;2023-03-13T07:58:27;9.13;;;5.20;;
2906;SDS011;1463;51.070;16.998;2023-03-13T08:00:56;8.10;;;5.90;;
2906;SDS011;1463;51.070;16.998;2023-03-13T08:03:24;7.88;;;4.72;;
2906;SDS011;1463;51.070;16.998;2023-03-13T08:05:57;6.45;;;5.28;;
2906;SDS011;1463;51.070;16.998;2023-03-13T08:08:25;8.65;;;4.82;;
2906;SDS011;1463;51.070;16.998;2023-03-13T08:10:59;12.30;;;6.32;;
2906;SDS011;1463;51.070;16.998;2023-03-13T08:13:27;9.75;;;7.10;;
2906;SDS011;1463;51.070;16.998;2023-03-13T08:16:02;13.48;;;4.75;;
2906;SDS011;1463;51.070;16.998;2023-03-13T08:18:31;10.25;;;4.30;;
2906;SDS011;1463;51.070;16.998;2023-03-13T08:21:06;6.82;;;3.97;;
2906;SDS011;1463;51.070;16.998;2023-03-13T08:23:35;19.77;;;4.68;;
2906;SDS011;1463;51.070;16.998;2023-03-13T08:26:05;6.70;;;3.97;;
2906;SDS011;1463;51.070;16.998;2023-03-13T08:28:34;11.30;;;5.05;;
2906;SDS011;1463;51.070;16.998;2023-03-13T08:31:06;8.23;;;4.35;;
2906;SDS011;1463;51.070;16.998;2023-03-13T08:33:34;7.25;;;4.40;;
2906;SDS011;1463;51.070;16.998;2023-03-13T08:36:10;13.82;;;4.05;;
2906;SDS011;1463;51.070;16.998;2023-03-13T08:38:38;6.22;;;4.30;;
2906;SDS011;1463;51.070;16.998;2023-03-13T08:41:14;13.55;;;3.95;;
2906;SDS011;1463;51.070;16.998;2023-03-13T08:43:43;8.27;;;3.88;;
2906;SDS011;1463;51.070;16.998;2023-03-13T08:46:11;9.77;;;3.75;;
2906;SDS011;1463;51.070;16.998;2023-03-13T08:48:38;5.53;;;3.10;;
2906;SDS011;1463;51.070;16.998;2023-03-13T08:51:07;6.65;;;3.72;;
2906;SDS011;1463;51.070;16.998;2023-03-13T08:53:36;8.52;;;3.30;;
2906;SDS011;1463;51.070;16.998;2023-03-13T08:56:07;4.88;;;3.42;;
2906;SDS011;1463;51.070;16.998;2023-03-13T08:58:36;7.20;;;3.60;;
2906;SDS011;1463;51.070;16.998;2023-03-13T09:01:05;8.57;;;3.33;;
2906;SDS011;1463;51.070;16.998;2023-03-13T09:03:33;5.80;;;3.20;;
2906;SDS011;1463;51.070;16.998;2023-03-13T09:06:00;9.00;;;3.47;;
2906;SDS011;1463;51.070;16.998;2023-03-13T09:08:29;10.05;;;3.17;;
2906;SDS011;1463;51.070;16.998;2023-03-13T09:10:59;13.75;;;3.45;;
2906;SDS011;1463;51.070;16.998;2023-03-13T09:13:29;4.97;;;2.60;;
2906;SDS011;1463;51.070;16.998;2023-03-13T09:15:59;7.25;;;3.35;;
2906;SDS011;1463;51.070;16.998;2023-03-13T09:18:28;7.03;;;3.80;;
2906;SDS011;1463;51.070;16.998;2023-03-13T09:20:55;6.20;;;3.40;;
2906;SDS011;1463;51.070;16.998;2023-03-13T09:23:23;6.95;;;3.30;;
2906;SDS011;1463;51.070;16.998;2023-03-13T09:25:52;8.68;;;2.92;;
2906;SDS011;1463;51.070;16.998;2023-03-13T09:28:20;7.85;;;2.83;;
2906;SDS011;1463;51.070;16.998;2023-03-13T09:30:48;9.07;;;3.00;;
2906;SDS011;1463;51.070;16.998;2023-03-13T09:33:17;5.00;;;3.10;;
2906;SDS011;1463;51.070;16.998;2023-03-13T09:35:45;2.95;;;2.03;;
2906;SDS011;1463;51.070;16.998;2023-03-13T09:38:15;13.55;;;3.33;;
2906;SDS011;1463;51.070;16.998;2023-03-13T09:40:43;10.25;;;3.50;;
2906;SDS011;1463;51.070;16.998;2023-03-13T09:43:17;5.93;;;2.80;;
2906;SDS011;1463;51.070;16.998;2023-03-13T09:45:51;5.10;;;2.60;;
2906;SDS011;1463;51.070;16.998;2023-03-13T09:48:28;6.93;;;2.70;;
2906;SDS011;1463;51.070;16.998;2023-03-13T09:50:59;5.57;;;2.47;;
2906;SDS011;1463;51.070;16.998;2023-03-13T09:53:32;4.80;;;2.28;;
2906;SDS011;1463;51.070;16.998;2023-03-13T09:56:08;5.28;;;2.45;;
2906;SDS011;1463;51.070;16.998;2023-03-13T09:58:42;4.55;;;3.28;;
2906;SDS011;1463;51.070;16.998;2023-03-13T10:01:16;5.00;;;3.03;;
2906;SDS011;1463;51.070;16.998;2023-03-13T10:03:54;5.90;;;2.70;;
2906;SDS011;1463;51.070;16.998;2023-03-13T10:06:32;6.55;;;2.92;;
2906;SDS011;1463;51.070;16.998;2023-03-13T10:09:04;3.65;;;2.55;;
2906;SDS011;1463;51.070;16.998;2023-03-13T10:11:41;9.05;;;2.92;;
2906;SDS011;1463;51.070;16.998;2023-03-13T10:14:15;5.30;;;2.35;;
2906;SDS011;1463;51.070;16.998;2023-03-13T10:16:47;5.20;;;2.65;;
2906;SDS011;1463;51.070;16.998;2023-03-13T10:19:24;5.60;;;2.35;;
2906;SDS011;1463;51.070;16.998;2023-03-13T10:21:57;3.88;;;2.40;;
2906;SDS011;1463;51.070;16.998;2023-03-13T10:24:30;6.07;;;2.80;;
2906;SDS011;1463;51.070;16.998;2023-03-13T10:26:59;3.20;;;1.95;;
2906;SDS011;1463;51.070;16.998;2023-03-13T10:29:29;5.35;;;2.80;;
2906;SDS011;1463;51.070;16.998;2023-03-13T10:31:58;5.75;;;2.60;;
2906;SDS011;1463;51.070;16.998;2023-03-13T10:34:29;4.47;;;2.33;;
2906;SDS011;1463;51.070;16.998;2023-03-13T10:37:13;8.30;;;2.65;;
2906;SDS011;1463;51.070;16.998;2023-03-13T10:39:42;5.43;;;2.60;;
2906;SDS011;1463;51.070;16.998;2023-03-13T10:42:10;8.68;;;3.08;;
2906;SDS011;1463;51.070;16.998;2023-03-13T10:44:44;7.30;;;2.67;;
2906;SDS011;1463;51.070;16.998;2023-03-13T10:47:12;5.22;;;2.55;;
2906;SDS011;1463;51.070;16.998;2023-03-13T10:49:47;4.80;;;2.40;;
2906;SDS011;1463;51.070;16.998;2023-03-13T10:52:29;4.53;;;2.30;;
2906;SDS011;1463;51.070;16.998;2023-03-13T10:54:59;12.85;;;3.13;;
2906;SDS011;1463;51.070;16.998;2023-03-13T10:57:28;10.65;;;2.83;;
2906;SDS011;1463;51.070;16.998;2023-03-13T10:59:57;7.03;;;2.58;;
2906;SDS011;1463;51.070;16.998;2023-03-13T11:02:34;7.25;;;3.28;;
2906;SDS011;1463;51.070;16.998;2023-03-13T11:05:25;3.50;;;2.03;;
2906;SDS011;1463;51.070;16.998;2023-03-13T11:07:57;5.35;;;2.03;;
2906;SDS011;1463;51.070;16.998;2023-03-13T11:10:50;5.45;;;2.90;;
2906;SDS011;1463;51.070;16.998;2023-03-13T11:13:26;5.30;;;2.50;;
2906;SDS011;1463;51.070;16.998;2023-03-13T11:15:56;7.75;;;2.35;;
2906;SDS011;1463;51.070;16.998;2023-03-13T11:18:29;5.28;;;2.72;;
2906;SDS011;1463;51.070;16.998;2023-03-13T11:21:04;14.60;;;2.70;;
2906;SDS011;1463;51.070;16.998;2023-03-13T11:23:33;5.03;;;2.63;;
2906;SDS011;1463;51.070;16.998;2023-03-13T11:26:09;5.78;;;2.15;;
2906;SDS011;1463;51.070;16.998;2023-03-13T11:28:46;12.35;;;3.10;;
2906;SDS011;1463;51.070;16.998;2023-03-13T11:31:18;4.78;;;2.30;;
2906;SDS011;1463;51.070;16.998;2023-03-13T11:33:52;8.45;;;2.90;;
2906;SDS011;1463;51.070;16.998;2023-03-13T11:36:28;4.28;;;2.88;;
2906;SDS011;1463;51.070;16.998;2023-03-13T11:39:15;5.40;;;2.92;;
2906;SDS011;1463;51.070;16.998;2023-03-13T11:41:58;4.55;;;2.63;;
2906;SDS011;1463;51.070;16.998;2023-03-13T11:44:30;6.10;;;2.60;;
2906;SDS011;1463;51.070;16.998;2023-03-13T11:47:12;5.88;;;2.75;;
2906;SDS011;1463;51.070;16.998;2023-03-13T11:50:04;5.20;;;2.30;;
2906;SDS011;1463;51.070;16.998;2023-03-13T11:52:45;4.07;;;2.20;;
2906;SDS011;1463;51.070;16.998;2023-03-13T11:55:24;8.07;;;3.03;;
2906;SDS011;1463;51.070;16.998;2023-03-13T11:58:02;8.55;;;3.75;;
2906;SDS011;1463;51.070;16.998;2023-03-13T12:00:46;5.70;;;2.58;;
2906;SDS011;1463;51.070;16.998;2023-03-13T12:03:17;4.43;;;2.50;;
2906;SDS011;1463;51.070;16.998;2023-03-13T12:05:50;8.20;;;2.63;;
2906;SDS011;1463;51.070;16.998;2023-03-13T12:08:22;5.38;;;2.05;;
2906;SDS011;1463;51.070;16.998;2023-03-13T12:10:57;10.50;;;2.60;;
2906;SDS011;1463;51.070;16.998;2023-03-13T12:13:32;7.70;;;2.70;;
2906;SDS011;1463;51.070;16.998;2023-03-13T12:16:05;4.07;;;1.90;;
2906;SDS011;1463;51.070;16.998;2023-03-13T12:18:37;3.17;;;1.55;;
2906;SDS011;1463;51.070;16.998;2023-03-13T12:21:11;3.63;;;1.95;;
2906;SDS011;1463;51.070;16.998;2023-03-13T12:23:47;4.10;;;1.65;;
2906;SDS011;1463;51.070;16.998;2023-03-13T12:26:25;4.97;;;2.30;;
2906;SDS011;1463;51.070;16.998;2023-03-13T12:29:00;5.70;;;2.25;;
2906;SDS011;1463;51.070;16.998;2023-03-13T12:31:33;4.25;;;2.50;;
2906;SDS011;1463;51.070;16.998;2023-03-13T12:34:08;4.85;;;1.63;;
2906;SDS011;1463;51.070;16.998;2023-03-13T12:36:42;5.13;;;2.30;;
2906;SDS011;1463;51.070;16.998;2023-03-13T12:39:19;3.10;;;1.70;;
2906;SDS011;1463;51.070;16.998;2023-03-13T12:41:59;4.32;;;2.15;;
2906;SDS011;1463;51.070;16.998;2023-03-13T12:44:40;3.05;;;1.77;;
2906;SDS011;1463;51.070;16.998;2023-03-13T12:47:09;2.50;;;1.70;;
2906;SDS011;1463;51.070;16.998;2023-03-13T12:49:59;3.65;;;1.85;;
2906;SDS011;1463;51.070;16.998;2023-03-13T12:52:48;4.05;;;1.70;;
2906;SDS011;1463;51.070;16.998;2023-03-13T12:58:24;3.40;;;2.65;;
2906;SDS011;1463;51.070;16.998;2023-03-13T13:01:04;3.55;;;1.80;;
2906;SDS011;1463;51.070;16.998;2023-03-13T13:03:33;2.65;;;1.50;;
2906;SDS011;1463;51.070;16.998;2023-03-13T13:06:05;2.83;;;1.90;;
2906;SDS011;1463;51.070;16.998;2023-03-13T13:08:36;4.05;;;2.28;;
2906;SDS011;1463;51.070;16.998;2023-03-13T13:17:27;3.63;;;2.00;;
2906;SDS011;1463;51.070;16.998;2023-03-13T13:20:34;5.70;;;2.00;;
2906;SDS011;1463;51.070;16.998;2023-03-13T13:23:20;6.07;;;2.13;;
2906;SDS011;1463;51.070;16.998;2023-03-13T13:35:28;8.18;;;2.35;;
2906;SDS011;1463;51.070;16.998;2023-03-13T13:41:24;3.25;;;2.67;;
2906;SDS011;1463;51.070;16.998;2023-03-13T13:47:00;5.45;;;2.30;;
2906;SDS011;1463;51.070;16.998;2023-03-13T13:49:36;8.85;;;2.75;;
2906;SDS011;1463;51.070;16.998;2023-03-13T13:52:30;3.30;;;2.33;;
2906;SDS011;1463;51.070;16.998;2023-03-13T13:55:00;4.55;;;2.55;;
2906;SDS011;1463;51.070;16.998;2023-03-13T13:57:29;5.22;;;2.70;;
2906;SDS011;1463;51.070;16.998;2023-03-13T14:00:04;4.57;;;3.00;;
2906;SDS011;1463;51.070;16.998;2023-03-13T14:02:46;5.93;;;2.58;;
2906;SDS011;1463;51.070;16.998;2023-03-13T14:05:17;3.55;;;2.42;;
2906;SDS011;1463;51.070;16.998;2023-03-13T14:07:49;5.60;;;2.92;;
2906;SDS011;1463;51.070;16.998;2023-03-13T14:13:13;3.13;;;2.13;;
2906;SDS011;1463;51.070;16.998;2023-03-13T14:15:43;6.32;;;3.08;;
2906;SDS011;1463;51.070;16.998;2023-03-13T14:18:15;3.60;;;2.53;;
2906;SDS011;1463;51.070;16.998;2023-03-13T14:20:53;5.60;;;2.70;;
2906;SDS011;1463;51.070;16.998;2023-03-13T14:23:34;6.80;;;3.30;;
2906;SDS011;1463;51.070;16.998;2023-03-13T14:26:13;4.20;;;2.75;;
2906;SDS011;1463;51.070;16.998;2023-03-13T14:28:46;4.57;;;2.42;;
2906;SDS011;1463;51.070;16.998;2023-03-13T14:31:22;5.43;;;2.92;;
2906;SDS011;1463;51.070;16.998;2023-03-13T14:33:51;6.13;;;2.83;;
2906;SDS011;1463;51.070;16.998;2023-03-13T14:36:21;3.60;;;2.35;;
2906;SDS011;1463;51.070;16.998;2023-03-13T14:38:52;5.40;;;2.17;;
2906;SDS011;1463;51.070;16.998;2023-03-13T14:41:22;7.40;;;3.00;;
2906;SDS011;1463;51.070;16.998;2023-03-13T14:43:54;4.15;;;2.35;;
2906;SDS011;1463;51.070;16.998;2023-03-13T14:46:30;4.10;;;2.63;;
2906;SDS011;1463;51.070;16.998;2023-03-13T14:49:04;5.10;;;2.20;;
2906;SDS011;1463;51.070;16.998;2023-03-13T14:51:35;5.47;;;2.63;;
2906;SDS011;1463;51.070;16.998;2023-03-13T14:54:05;6.25;;;2.88;;
2906;SDS011;1463;51.070;16.998;2023-03-13T14:57:00;6.20;;;3.13;;
2906;SDS011;1463;51.070;16.998;2023-03-13T14:59:29;4.15;;;2.20;;
2906;SDS011;1463;51.070;16.998;2023-03-13T15:01:57;7.43;;;2.63;;
2906;SDS011;1463;51.070;16.998;2023-03-13T15:07:17;2.83;;;1.83;;
2906;SDS011;1463;51.070;16.998;2023-03-13T15:09:48;3.80;;;2.28;;
2906;SDS011;1463;51.070;16.998;2023-03-13T15:12:17;4.25;;;2.53;;
2906;SDS011;1463;51.070;16.998;2023-03-13T15:14:46;3.95;;;2.00;;
2906;SDS011;1463;51.070;16.998;2023-03-13T15:17:16;6.13;;;2.25;;
2906;SDS011;1463;51.070;16.998;2023-03-13T15:19:52;3.45;;;2.20;;
2906;SDS011;1463;51.070;16.998;2023-03-13T15:22:23;6.88;;;2.33;;
2906;SDS011;1463;51.070;16.998;2023-03-13T15:24:53;3.30;;;2.08;;
2906;SDS011;1463;51.070;16.998;2023-03-13T15:27:21;4.28;;;2.28;;
2906;SDS011;1463;51.070;16.998;2023-03-13T15:29:50;5.22;;;2.35;;
2906;SDS011;1463;51.070;16.998;2023-03-13T15:32:22;4.95;;;2.40;;
2906;SDS011;1463;51.070;16.998;2023-03-13T15:34:51;3.60;;;2.70;;
2906;SDS011;1463;51.070;16.998;2023-03-13T15:37:24;6.43;;;2.00;;
2906;SDS011;1463;51.070;16.998;2023-03-13T15:39:53;3.17;;;2.00;;
2906;SDS011;1463;51.070;16.998;2023-03-13T15:42:24;3.97;;;2.30;;
2906;SDS011;1463;51.070;16.998;2023-03-13T15:44:54;3.40;;;2.33;;
2906;SDS011;1463;51.070;16.998;2023-03-13T15:47:21;5.25;;;2.30;;
2906;SDS011;1463;51.070;16.998;2023-03-13T15:49:49;5.30;;;2.30;;
2906;SDS011;1463;51.070;16.998;2023-03-13T15:52:17;4.25;;;2.95;;